sensor_id;sensor_type;location;lat;lon;timestamp;P1;durP1;ratioP1;P2;durP2;ratioP2
35803;SDS011;21924;51.934;7.414;2023-07-02T00:00:41;16.45;;;6.35;;
35803;SDS011;21924;51.934;7.414;2023-07-02T00:03:25;10.75;;;6.15;;
35803;SDS011;21924;51.934;7.414;2023-07-02T00:06:10;10.57;;;5.97;;
35803;SDS011;21924;51.934;7.414;2023-07-02T00:08:54;11.77;;;6.60;;
35803;SDS011;21924;51.934;7.414;2023-07-02T00:11:38;15.05;;;5.72;;
35803;SDS011;21924;51.934;7.414;2023-07-02T00:14:24;13.82;;;6.00;;
35803;SDS011;21924;51.934;7.414;2023-07-02T00:17:08;13.38;;;7.10;;
35803;SDS011;21924;51.934;7.414;2023-07-02T00:19:55;12.38;;;7.13;;
35803;SDS011;21924;51.934;7.414;2023-07-02T00:22:41;19.70;;;8.47;;
35803;SDS011;21924;51.934;7.414;2023-07-02T00:25:29;8.05;;;6.13;;
35803;SDS011;21924;51.934;7.414;2023-07-02T00:28:13;10.23;;;6.60;;
35803;SDS011;21924;51.934;7.414;2023-07-02T00:30:58;18.63;;;6.63;;
35803;SDS011;21924;51.934;7.414;2023-07-02T00:33:42;16.20;;;8.18;;
35803;SDS011;21924;51.934;7.414;2023-07-02T00:36:26;12.40;;;7.22;;
35803;SDS011;21924;51.934;7.414;2023-07-02T00:39:11;13.77;;;6.97;;
35803;SDS011;21924;51.934;7.414;2023-07-02T00:42:00;21.07;;;8.83;;
35803;SDS011;21924;51.934;7.414;2023-07-02T00:44:47;13.40;;;7.95;;
35803;SDS011;21924;51.934;7.414;2023-07-02T00:47:32;13.45;;;6.85;;
35803;SDS011;21924;51.934;7.414;2023-07-02T00:50:18;13.88;;;7.53;;
35803;SDS011;21924;51.934;7.414;2023-07-02T00:53:02;14.77;;;7.40;;
35803;SDS011;21924;51.934;7.414;2023-07-02T00:55:46;15.38;;;7.32;;
35803;SDS011;21924;51.934;7.414;2023-07-02T00:58:30;16.13;;;7.55;;
35803;SDS011;21924;51.934;7.414;2023-07-02T01:01:17;12.98;;;6.90;;
35803;SDS011;21924;51.934;7.414;2023-07-02T01:04:04;17.33;;;7.97;;
35803;SDS011;21924;51.934;7.414;2023-07-02T01:06:51;18.70;;;8.02;;
35803;SDS011;21924;51.934;7.414;2023-07-02T01:09:40;13.93;;;7.45;;
35803;SDS011;21924;51.934;7.414;2023-07-02T01:12:25;15.07;;;7.65;;
35803;SDS011;21924;51.934;7.414;2023-07-02T01:15:11;23.17;;;9.27;;
35803;SDS011;21924;51.934;7.414;2023-07-02T01:17:55;17.77;;;7.78;;
35803;SDS011;21924;51.934;7.414;2023-07-02T01:20:41;16.90;;;8.02;;
35803;SDS011;21924;51.934;7.414;2023-07-02T01:26:10;16.88;;;8.90;;
35803;SDS011;21924;51.934;7.414;2023-07-02T01:28:55;19.17;;;9.13;;
35803;SDS011;21924;51.934;7.414;2023-07-02T01:31:40;16.15;;;8.20;;
35803;SDS011;21924;51.934;7.414;2023-07-02T01:34:25;29.52;;;9.32;;
35803;SDS011;21924;51.934;7.414;2023-07-02T01:37:09;18.08;;;8.15;;
35803;SDS011;21924;51.934;7.414;2023-07-02T01:39:54;18.58;;;9.63;;
35803;SDS011;21924;51.934;7.414;2023-07-02T01:42:38;20.50;;;9.07;;
35803;SDS011;21924;51.934;7.414;2023-07-02T01:45:23;19.05;;;8.73;;
35803;SDS011;21924;51.934;7.414;2023-07-02T01:48:07;18.85;;;7.82;;
35803;SDS011;21924;51.934;7.414;2023-07-02T01:50:51;14.77;;;8.60;;
35803;SDS011;21924;51.934;7.414;2023-07-02T01:53:36;18.40;;;8.60;;
35803;SDS011;21924;51.934;7.414;2023-07-02T01:56:20;18.55;;;8.25;;
35803;SDS011;21924;51.934;7.414;2023-07-02T01:59:04;17.50;;;9.82;;
35803;SDS011;21924;51.934;7.414;2023-07-02T02:01:48;21.52;;;9.10;;
35803;SDS011;21924;51.934;7.414;2023-07-02T02:04:32;19.45;;;9.40;;
35803;SDS011;21924;51.934;7.414;2023-07-02T02:07:17;18.10;;;8.80;;
35803;SDS011;21924;51.934;7.414;2023-07-02T02:10:02;22.52;;;8.80;;
35803;SDS011;21924;51.934;7.414;2023-07-02T02:12:47;17.73;;;8.32;;
35803;SDS011;21924;51.934;7.414;2023-07-02T02:15:32;20.65;;;8.90;;
35803;SDS011;21924;51.934;7.414;2023-07-02T02:18:16;20.27;;;8.68;;
35803;SDS011;21924;51.934;7.414;2023-07-02T02:21:00;15.88;;;8.48;;
35803;SDS011;21924;51.934;7.414;2023-07-02T02:23:45;17.05;;;7.88;;
35803;SDS011;21924;51.934;7.414;2023-07-02T02:26:30;17.50;;;8.20;;
35803;SDS011;21924;51.934;7.414;2023-07-02T02:29:14;14.38;;;8.45;;
35803;SDS011;21924;51.934;7.414;2023-07-02T02:31:58;21.63;;;9.05;;
35803;SDS011;21924;51.934;7.414;2023-07-02T02:34:42;18.63;;;8.35;;
35803;SDS011;21924;51.934;7.414;2023-07-02T02:37:26;20.83;;;8.32;;
35803;SDS011;21924;51.934;7.414;2023-07-02T02:40:11;14.63;;;7.68;;
35803;SDS011;21924;51.934;7.414;2023-07-02T02:42:56;17.48;;;8.23;;
35803;SDS011;21924;51.934;7.414;2023-07-02T02:45:40;13.50;;;7.30;;
35803;SDS011;21924;51.934;7.414;2023-07-02T02:48:24;19.55;;;8.35;;
35803;SDS011;21924;51.934;7.414;2023-07-02T02:51:08;17.60;;;8.95;;
35803;SDS011;21924;51.934;7.414;2023-07-02T02:53:52;23.48;;;9.55;;
35803;SDS011;21924;51.934;7.414;2023-07-02T02:56:36;18.95;;;8.43;;
35803;SDS011;21924;51.934;7.414;2023-07-02T02:59:21;21.92;;;8.93;;
35803;SDS011;21924;51.934;7.414;2023-07-02T03:02:05;23.60;;;8.98;;
35803;SDS011;21924;51.934;7.414;2023-07-02T03:04:49;24.60;;;10.18;;
35803;SDS011;21924;51.934;7.414;2023-07-02T03:07:34;22.95;;;9.73;;
35803;SDS011;21924;51.934;7.414;2023-07-02T03:10:18;24.77;;;9.85;;
35803;SDS011;21924;51.934;7.414;2023-07-02T03:13:03;25.98;;;10.38;;
35803;SDS011;21924;51.934;7.414;2023-07-02T03:15:47;23.05;;;10.18;;
35803;SDS011;21924;51.934;7.414;2023-07-02T03:18:31;19.63;;;9.93;;
35803;SDS011;21924;51.934;7.414;2023-07-02T03:21:15;19.00;;;9.40;;
35803;SDS011;21924;51.934;7.414;2023-07-02T03:24:00;26.25;;;9.73;;
35803;SDS011;21924;51.934;7.414;2023-07-02T03:26:44;24.70;;;9.50;;
35803;SDS011;21924;51.934;7.414;2023-07-02T03:29:29;23.95;;;10.93;;
35803;SDS011;21924;51.934;7.414;2023-07-02T03:32:13;23.83;;;10.30;;
35803;SDS011;21924;51.934;7.414;2023-07-02T03:34:57;23.98;;;10.38;;
35803;SDS011;21924;51.934;7.414;2023-07-02T03:37:41;34.47;;;10.32;;
35803;SDS011;21924;51.934;7.414;2023-07-02T03:40:27;28.55;;;10.65;;
35803;SDS011;21924;51.934;7.414;2023-07-02T03:43:12;26.77;;;10.65;;
35803;SDS011;21924;51.934;7.414;2023-07-02T03:45:57;23.85;;;10.40;;
35803;SDS011;21924;51.934;7.414;2023-07-02T03:48:41;24.23;;;11.23;;
35803;SDS011;21924;51.934;7.414;2023-07-02T03:51:26;20.10;;;9.10;;
35803;SDS011;21924;51.934;7.414;2023-07-02T03:54:10;24.17;;;9.57;;
35803;SDS011;21924;51.934;7.414;2023-07-02T03:56:54;21.80;;;8.80;;
35803;SDS011;21924;51.934;7.414;2023-07-02T03:59:38;26.80;;;8.52;;
35803;SDS011;21924;51.934;7.414;2023-07-02T04:02:22;17.35;;;7.80;;
35803;SDS011;21924;51.934;7.414;2023-07-02T04:05:07;21.52;;;9.82;;
35803;SDS011;21924;51.934;7.414;2023-07-02T04:07:51;21.70;;;8.25;;
35803;SDS011;21924;51.934;7.414;2023-07-02T04:10:35;28.65;;;9.18;;
35803;SDS011;21924;51.934;7.414;2023-07-02T04:13:20;21.10;;;8.55;;
35803;SDS011;21924;51.934;7.414;2023-07-02T04:16:04;17.40;;;7.75;;
35803;SDS011;21924;51.934;7.414;2023-07-02T04:18:48;25.75;;;9.57;;
35803;SDS011;21924;51.934;7.414;2023-07-02T04:21:32;23.98;;;6.95;;
35803;SDS011;21924;51.934;7.414;2023-07-02T04:24:17;19.58;;;7.03;;
35803;SDS011;21924;51.934;7.414;2023-07-02T04:27:01;17.65;;;7.15;;
35803;SDS011;21924;51.934;7.414;2023-07-02T04:29:45;20.38;;;6.63;;
35803;SDS011;21924;51.934;7.414;2023-07-02T04:32:29;20.10;;;7.45;;
35803;SDS011;21924;51.934;7.414;2023-07-02T04:35:14;19.73;;;6.70;;
35803;SDS011;21924;51.934;7.414;2023-07-02T04:37:58;19.80;;;6.80;;
35803;SDS011;21924;51.934;7.414;2023-07-02T04:40:42;17.45;;;6.20;;
35803;SDS011;21924;51.934;7.414;2023-07-02T04:43:28;20.92;;;7.43;;
35803;SDS011;21924;51.934;7.414;2023-07-02T04:46:16;19.15;;;6.45;;
35803;SDS011;21924;51.934;7.414;2023-07-02T04:49:01;14.65;;;6.25;;
35803;SDS011;21924;51.934;7.414;2023-07-02T04:51:45;17.95;;;5.20;;
35803;SDS011;21924;51.934;7.414;2023-07-02T04:54:30;25.63;;;7.18;;
35803;SDS011;21924;51.934;7.414;2023-07-02T04:57:14;24.05;;;6.72;;
35803;SDS011;21924;51.934;7.414;2023-07-02T04:59:58;15.07;;;5.22;;
35803;SDS011;21924;51.934;7.414;2023-07-02T05:02:42;19.08;;;6.75;;
35803;SDS011;21924;51.934;7.414;2023-07-02T05:05:27;16.65;;;6.28;;
35803;SDS011;21924;51.934;7.414;2023-07-02T05:08:11;15.60;;;5.72;;
35803;SDS011;21924;51.934;7.414;2023-07-02T05:10:56;26.80;;;6.15;;
35803;SDS011;21924;51.934;7.414;2023-07-02T05:13:40;15.32;;;5.93;;
35803;SDS011;21924;51.934;7.414;2023-07-02T05:16:24;16.60;;;5.45;;
35803;SDS011;21924;51.934;7.414;2023-07-02T05:19:08;20.70;;;6.07;;
35803;SDS011;21924;51.934;7.414;2023-07-02T05:21:53;22.50;;;6.32;;
35803;SDS011;21924;51.934;7.414;2023-07-02T05:24:37;21.23;;;6.53;;
35803;SDS011;21924;51.934;7.414;2023-07-02T05:27:21;20.73;;;5.72;;
35803;SDS011;21924;51.934;7.414;2023-07-02T05:30:05;14.35;;;5.70;;
35803;SDS011;21924;51.934;7.414;2023-07-02T05:32:50;14.02;;;5.88;;
35803;SDS011;21924;51.934;7.414;2023-07-02T05:35:34;22.50;;;6.22;;
35803;SDS011;21924;51.934;7.414;2023-07-02T05:38:19;17.95;;;6.10;;
35803;SDS011;21924;51.934;7.414;2023-07-02T05:41:03;24.02;;;7.32;;
35803;SDS011;21924;51.934;7.414;2023-07-02T05:43:47;17.25;;;5.65;;
35803;SDS011;21924;51.934;7.414;2023-07-02T05:46:32;19.02;;;5.45;;
35803;SDS011;21924;51.934;7.414;2023-07-02T05:49:16;20.83;;;6.10;;
35803;SDS011;21924;51.934;7.414;2023-07-02T05:52:01;17.75;;;6.57;;
35803;SDS011;21924;51.934;7.414;2023-07-02T05:54:45;18.92;;;5.90;;
35803;SDS011;21924;51.934;7.414;2023-07-02T05:57:29;15.95;;;5.60;;
35803;SDS011;21924;51.934;7.414;2023-07-02T06:00:14;24.35;;;6.22;;
35803;SDS011;21924;51.934;7.414;2023-07-02T06:02:58;13.50;;;4.47;;
35803;SDS011;21924;51.934;7.414;2023-07-02T06:05:42;17.65;;;5.88;;
35803;SDS011;21924;51.934;7.414;2023-07-02T06:08:27;16.98;;;5.75;;
35803;SDS011;21924;51.934;7.414;2023-07-02T06:11:11;17.70;;;5.90;;
35803;SDS011;21924;51.934;7.414;2023-07-02T06:13:56;19.70;;;6.63;;
35803;SDS011;21924;51.934;7.414;2023-07-02T06:16:40;20.42;;;6.53;;
35803;SDS011;21924;51.934;7.414;2023-07-02T06:19:25;19.38;;;6.35;;
35803;SDS011;21924;51.934;7.414;2023-07-02T06:22:09;21.55;;;6.78;;
35803;SDS011;21924;51.934;7.414;2023-07-02T06:24:54;19.50;;;6.10;;
35803;SDS011;21924;51.934;7.414;2023-07-02T06:27:38;19.30;;;6.20;;
35803;SDS011;21924;51.934;7.414;2023-07-02T06:30:22;21.52;;;6.97;;
35803;SDS011;21924;51.934;7.414;2023-07-02T06:33:06;22.13;;;6.82;;
35803;SDS011;21924;51.934;7.414;2023-07-02T06:35:51;21.67;;;6.63;;
35803;SDS011;21924;51.934;7.414;2023-07-02T06:38:35;27.13;;;6.63;;
35803;SDS011;21924;51.934;7.414;2023-07-02T06:41:19;21.08;;;6.55;;
35803;SDS011;21924;51.934;7.414;2023-07-02T06:44:04;26.58;;;6.85;;
35803;SDS011;21924;51.934;7.414;2023-07-02T06:46:48;20.08;;;6.18;;
35803;SDS011;21924;51.934;7.414;2023-07-02T06:49:32;22.50;;;6.15;;
35803;SDS011;21924;51.934;7.414;2023-07-02T06:52:16;21.08;;;6.45;;
35803;SDS011;21924;51.934;7.414;2023-07-02T06:55:00;23.40;;;6.35;;
35803;SDS011;21924;51.934;7.414;2023-07-02T06:57:45;23.67;;;6.32;;
35803;SDS011;21924;51.934;7.414;2023-07-02T07:00:30;23.10;;;6.85;;
35803;SDS011;21924;51.934;7.414;2023-07-02T07:03:19;18.52;;;5.95;;
35803;SDS011;21924;51.934;7.414;2023-07-02T07:06:03;18.10;;;5.90;;
35803;SDS011;21924;51.934;7.414;2023-07-02T07:08:47;22.73;;;6.55;;
35803;SDS011;21924;51.934;7.414;2023-07-02T07:11:32;22.98;;;6.40;;
35803;SDS011;21924;51.934;7.414;2023-07-02T07:14:16;23.77;;;6.57;;
35803;SDS011;21924;51.934;7.414;2023-07-02T07:17:00;27.33;;;6.60;;
35803;SDS011;21924;51.934;7.414;2023-07-02T07:19:44;36.15;;;6.75;;
35803;SDS011;21924;51.934;7.414;2023-07-02T07:22:28;22.90;;;7.53;;
35803;SDS011;21924;51.934;7.414;2023-07-02T07:25:13;17.60;;;5.72;;
35803;SDS011;21924;51.934;7.414;2023-07-02T07:27:58;21.35;;;6.35;;
35803;SDS011;21924;51.934;7.414;2023-07-02T07:30:43;23.73;;;6.45;;
35803;SDS011;21924;51.934;7.414;2023-07-02T07:33:27;26.42;;;5.97;;
35803;SDS011;21924;51.934;7.414;2023-07-02T07:36:12;22.80;;;5.13;;
35803;SDS011;21924;51.934;7.414;2023-07-02T07:38:56;19.77;;;5.90;;
35803;SDS011;21924;51.934;7.414;2023-07-02T07:41:40;16.63;;;5.78;;
35803;SDS011;21924;51.934;7.414;2023-07-02T07:44:24;19.80;;;5.82;;
35803;SDS011;21924;51.934;7.414;2023-07-02T07:47:12;14.18;;;5.47;;
35803;SDS011;21924;51.934;7.414;2023-07-02T07:49:57;12.77;;;5.18;;
35803;SDS011;21924;51.934;7.414;2023-07-02T07:52:41;16.75;;;6.00;;
35803;SDS011;21924;51.934;7.414;2023-07-02T07:55:26;14.70;;;5.10;;
35803;SDS011;21924;51.934;7.414;2023-07-02T07:58:11;10.13;;;4.82;;
35803;SDS011;21924;51.934;7.414;2023-07-02T08:00:55;16.95;;;5.10;;
35803;SDS011;21924;51.934;7.414;2023-07-02T08:03:39;21.65;;;5.13;;
35803;SDS011;21924;51.934;7.414;2023-07-02T08:06:23;14.50;;;5.78;;
35803;SDS011;21924;51.934;7.414;2023-07-02T08:09:08;17.90;;;4.90;;
35803;SDS011;21924;51.934;7.414;2023-07-02T08:11:53;14.98;;;4.65;;
35803;SDS011;21924;51.934;7.414;2023-07-02T08:14:37;14.90;;;4.28;;
35803;SDS011;21924;51.934;7.414;2023-07-02T08:17:21;13.07;;;4.47;;
35803;SDS011;21924;51.934;7.414;2023-07-02T08:20:06;12.05;;;4.13;;
35803;SDS011;21924;51.934;7.414;2023-07-02T08:22:53;13.63;;;4.45;;
35803;SDS011;21924;51.934;7.414;2023-07-02T08:25:37;22.38;;;5.03;;
35803;SDS011;21924;51.934;7.414;2023-07-02T08:28:21;12.52;;;5.65;;
35803;SDS011;21924;51.934;7.414;2023-07-02T08:31:05;9.27;;;4.40;;
35803;SDS011;21924;51.934;7.414;2023-07-02T08:33:50;16.45;;;4.38;;
35803;SDS011;21924;51.934;7.414;2023-07-02T08:36:34;13.40;;;4.43;;
35803;SDS011;21924;51.934;7.414;2023-07-02T08:39:18;13.20;;;4.80;;
35803;SDS011;21924;51.934;7.414;2023-07-02T08:42:02;12.73;;;4.53;;
35803;SDS011;21924;51.934;7.414;2023-07-02T08:44:47;14.95;;;4.13;;
35803;SDS011;21924;51.934;7.414;2023-07-02T08:47:32;14.02;;;4.63;;
35803;SDS011;21924;51.934;7.414;2023-07-02T08:50:17;18.80;;;5.60;;
35803;SDS011;21924;51.934;7.414;2023-07-02T08:53:01;13.85;;;4.22;;
35803;SDS011;21924;51.934;7.414;2023-07-02T08:55:45;14.73;;;4.55;;
35803;SDS011;21924;51.934;7.414;2023-07-02T08:58:29;17.80;;;4.50;;
35803;SDS011;21924;51.934;7.414;2023-07-02T09:01:14;14.82;;;4.53;;
35803;SDS011;21924;51.934;7.414;2023-07-02T09:03:58;12.48;;;4.25;;
35803;SDS011;21924;51.934;7.414;2023-07-02T09:06:44;15.20;;;4.72;;
35803;SDS011;21924;51.934;7.414;2023-07-02T09:09:29;14.15;;;4.68;;
35803;SDS011;21924;51.934;7.414;2023-07-02T09:12:23;12.15;;;4.80;;
35803;SDS011;21924;51.934;7.414;2023-07-02T09:15:08;14.70;;;4.68;;
35803;SDS011;21924;51.934;7.414;2023-07-02T09:17:52;12.13;;;4.93;;
35803;SDS011;21924;51.934;7.414;2023-07-02T09:20:36;9.60;;;4.35;;
35803;SDS011;21924;51.934;7.414;2023-07-02T09:23:21;12.73;;;5.10;;
35803;SDS011;21924;51.934;7.414;2023-07-02T09:26:05;12.07;;;4.30;;
35803;SDS011;21924;51.934;7.414;2023-07-02T09:28:50;15.85;;;4.10;;
35803;SDS011;21924;51.934;7.414;2023-07-02T09:31:46;16.00;;;4.57;;
35803;SDS011;21924;51.934;7.414;2023-07-02T09:34:31;12.02;;;3.97;;
35803;SDS011;21924;51.934;7.414;2023-07-02T09:37:17;15.10;;;4.47;;
35803;SDS011;21924;51.934;7.414;2023-07-02T09:40:01;9.27;;;4.53;;
35803;SDS011;21924;51.934;7.414;2023-07-02T09:42:49;14.80;;;4.80;;
35803;SDS011;21924;51.934;7.414;2023-07-02T09:45:36;11.52;;;4.20;;
35803;SDS011;21924;51.934;7.414;2023-07-02T09:48:23;12.32;;;4.40;;
35803;SDS011;21924;51.934;7.414;2023-07-02T09:51:11;12.73;;;4.53;;
35803;SDS011;21924;51.934;7.414;2023-07-02T09:53:56;15.90;;;5.53;;
35803;SDS011;21924;51.934;7.414;2023-07-02T09:56:40;15.95;;;5.35;;
35803;SDS011;21924;51.934;7.414;2023-07-02T09:59:24;15.00;;;5.32;;
35803;SDS011;21924;51.934;7.414;2023-07-02T10:02:09;14.07;;;4.63;;
35803;SDS011;21924;51.934;7.414;2023-07-02T10:04:53;18.98;;;5.78;;
35803;SDS011;21924;51.934;7.414;2023-07-02T10:07:38;12.95;;;4.50;;
35803;SDS011;21924;51.934;7.414;2023-07-02T10:10:29;17.10;;;5.72;;
35803;SDS011;21924;51.934;7.414;2023-07-02T10:13:14;10.93;;;4.40;;
35803;SDS011;21924;51.934;7.414;2023-07-02T10:16:02;14.68;;;4.60;;
35803;SDS011;21924;51.934;7.414;2023-07-02T10:18:47;14.13;;;5.07;;
35803;SDS011;21924;51.934;7.414;2023-07-02T10:21:32;14.60;;;4.35;;
35803;SDS011;21924;51.934;7.414;2023-07-02T10:24:16;14.25;;;4.68;;
35803;SDS011;21924;51.934;7.414;2023-07-02T10:27:01;11.52;;;4.15;;
35803;SDS011;21924;51.934;7.414;2023-07-02T10:29:49;12.63;;;4.35;;
35803;SDS011;21924;51.934;7.414;2023-07-02T10:32:34;14.88;;;4.72;;
35803;SDS011;21924;51.934;7.414;2023-07-02T10:35:19;13.95;;;4.75;;
35803;SDS011;21924;51.934;7.414;2023-07-02T10:38:04;12.15;;;4.80;;
35803;SDS011;21924;51.934;7.414;2023-07-02T10:40:53;10.73;;;4.05;;
35803;SDS011;21924;51.934;7.414;2023-07-02T10:43:47;13.02;;;4.15;;
35803;SDS011;21924;51.934;7.414;2023-07-02T10:46:31;11.25;;;4.40;;
35803;SDS011;21924;51.934;7.414;2023-07-02T10:49:16;12.15;;;4.03;;
35803;SDS011;21924;51.934;7.414;2023-07-02T10:52:01;18.85;;;5.55;;
35803;SDS011;21924;51.934;7.414;2023-07-02T10:54:50;14.32;;;4.20;;
35803;SDS011;21924;51.934;7.414;2023-07-02T10:57:35;9.95;;;4.15;;
35803;SDS011;21924;51.934;7.414;2023-07-02T11:00:19;13.85;;;4.97;;
35803;SDS011;21924;51.934;7.414;2023-07-02T11:03:04;12.52;;;4.65;;
35803;SDS011;21924;51.934;7.414;2023-07-02T11:05:48;17.80;;;5.15;;
35803;SDS011;21924;51.934;7.414;2023-07-02T11:08:34;10.43;;;4.00;;
35803;SDS011;21924;51.934;7.414;2023-07-02T11:11:18;14.70;;;4.63;;
35803;SDS011;21924;51.934;7.414;2023-07-02T11:14:03;17.20;;;4.85;;
35803;SDS011;21924;51.934;7.414;2023-07-02T11:16:47;13.55;;;4.55;;
35803;SDS011;21924;51.934;7.414;2023-07-02T11:19:38;10.18;;;3.95;;
35803;SDS011;21924;51.934;7.414;2023-07-02T11:22:30;14.75;;;4.43;;
35803;SDS011;21924;51.934;7.414;2023-07-02T11:25:17;9.60;;;4.45;;
35803;SDS011;21924;51.934;7.414;2023-07-02T11:28:04;12.05;;;4.50;;
35803;SDS011;21924;51.934;7.414;2023-07-02T11:30:48;10.15;;;4.53;;
35803;SDS011;21924;51.934;7.414;2023-07-02T11:36:21;10.50;;;4.15;;
35803;SDS011;21924;51.934;7.414;2023-07-02T11:39:07;10.73;;;3.95;;
35803;SDS011;21924;51.934;7.414;2023-07-02T11:41:52;10.48;;;3.90;;
35803;SDS011;21924;51.934;7.414;2023-07-02T11:44:36;10.45;;;3.50;;
35803;SDS011;21924;51.934;7.414;2023-07-02T11:47:21;12.45;;;3.95;;
35803;SDS011;21924;51.934;7.414;2023-07-02T11:50:05;10.73;;;4.03;;
35803;SDS011;21924;51.934;7.414;2023-07-02T11:52:50;9.48;;;3.53;;
35803;SDS011;21924;51.934;7.414;2023-07-02T11:55:36;13.90;;;4.38;;
35803;SDS011;21924;51.934;7.414;2023-07-02T11:58:20;14.55;;;4.30;;
35803;SDS011;21924;51.934;7.414;2023-07-02T12:01:05;19.55;;;4.15;;
35803;SDS011;21924;51.934;7.414;2023-07-02T12:03:49;10.05;;;3.65;;
35803;SDS011;21924;51.934;7.414;2023-07-02T12:06:34;14.57;;;4.00;;
35803;SDS011;21924;51.934;7.414;2023-07-02T12:09:18;17.63;;;4.57;;
35803;SDS011;21924;51.934;7.414;2023-07-02T12:12:03;13.95;;;4.40;;
35803;SDS011;21924;51.934;7.414;2023-07-02T12:14:48;13.90;;;5.35;;
35803;SDS011;21924;51.934;7.414;2023-07-02T14:07:07;8.27;;;3.80;;
35803;SDS011;21924;51.934;7.414;2023-07-02T14:09:51;8.43;;;3.42;;
35803;SDS011;21924;51.934;7.414;2023-07-02T14:12:35;9.55;;;3.33;;
35803;SDS011;21924;51.934;7.414;2023-07-02T14:15:19;13.90;;;4.10;;
35803;SDS011;21924;51.934;7.414;2023-07-02T14:18:04;8.05;;;3.55;;
35803;SDS011;21924;51.934;7.414;2023-07-02T14:20:49;13.93;;;3.90;;
35803;SDS011;21924;51.934;7.414;2023-07-02T14:23:33;12.38;;;3.95;;
35803;SDS011;21924;51.934;7.414;2023-07-02T14:26:17;12.23;;;4.20;;
35803;SDS011;21924;51.934;7.414;2023-07-02T14:29:02;12.07;;;4.22;;
35803;SDS011;21924;51.934;7.414;2023-07-02T14:31:46;9.63;;;3.58;;
35803;SDS011;21924;51.934;7.414;2023-07-02T14:34:30;12.23;;;4.00;;
35803;SDS011;21924;51.934;7.414;2023-07-02T14:37:14;9.65;;;3.47;;
35803;SDS011;21924;51.934;7.414;2023-07-02T14:39:58;9.77;;;3.60;;
35803;SDS011;21924;51.934;7.414;2023-07-02T14:42:42;11.13;;;4.10;;
35803;SDS011;21924;51.934;7.414;2023-07-02T14:45:27;11.00;;;3.63;;
35803;SDS011;21924;51.934;7.414;2023-07-02T14:48:11;10.00;;;3.30;;
35803;SDS011;21924;51.934;7.414;2023-07-02T14:50:56;8.60;;;3.17;;
35803;SDS011;21924;51.934;7.414;2023-07-02T14:53:42;8.93;;;3.50;;
35803;SDS011;21924;51.934;7.414;2023-07-02T14:56:26;9.97;;;3.27;;
35803;SDS011;21924;51.934;7.414;2023-07-02T14:59:11;9.10;;;3.10;;
35803;SDS011;21924;51.934;7.414;2023-07-02T15:01:57;11.20;;;3.20;;
35803;SDS011;21924;51.934;7.414;2023-07-02T15:04:41;6.90;;;3.00;;
35803;SDS011;21924;51.934;7.414;2023-07-02T15:07:25;8.35;;;3.10;;
35803;SDS011;21924;51.934;7.414;2023-07-02T15:10:10;8.40;;;2.85;;
35803;SDS011;21924;51.934;7.414;2023-07-02T15:12:54;7.00;;;2.70;;
35803;SDS011;21924;51.934;7.414;2023-07-02T15:15:39;7.18;;;2.95;;
35803;SDS011;21924;51.934;7.414;2023-07-02T15:21:09;7.73;;;2.60;;
35803;SDS011;21924;51.934;7.414;2023-07-02T15:23:53;8.00;;;2.75;;
35803;SDS011;21924;51.934;7.414;2023-07-02T15:26:38;6.40;;;2.47;;
35803;SDS011;21924;51.934;7.414;2023-07-02T15:29:23;7.63;;;2.72;;
35803;SDS011;21924;51.934;7.414;2023-07-02T15:32:07;8.63;;;3.17;;
35803;SDS011;21924;51.934;7.414;2023-07-02T15:34:51;12.52;;;3.20;;
35803;SDS011;21924;51.934;7.414;2023-07-02T15:37:36;8.33;;;3.13;;
35803;SDS011;21924;51.934;7.414;2023-07-02T15:40:20;8.88;;;3.10;;
35803;SDS011;21924;51.934;7.414;2023-07-02T15:43:05;9.13;;;3.20;;
35803;SDS011;21924;51.934;7.414;2023-07-02T15:45:51;5.97;;;2.70;;
35803;SDS011;21924;51.934;7.414;2023-07-02T15:48:35;9.77;;;2.75;;
35803;SDS011;21924;51.934;7.414;2023-07-02T15:51:20;8.80;;;3.17;;
35803;SDS011;21924;51.934;7.414;2023-07-02T15:54:06;8.68;;;3.00;;
35803;SDS011;21924;51.934;7.414;2023-07-02T15:56:51;8.63;;;2.90;;
35803;SDS011;21924;51.934;7.414;2023-07-02T15:59:35;10.25;;;3.22;;
35803;SDS011;21924;51.934;7.414;2023-07-02T16:02:20;9.02;;;3.35;;
35803;SDS011;21924;51.934;7.414;2023-07-02T16:05:05;12.43;;;3.38;;
35803;SDS011;21924;51.934;7.414;2023-07-02T16:07:50;7.63;;;2.75;;
35803;SDS011;21924;51.934;7.414;2023-07-02T16:10:34;8.68;;;3.13;;
35803;SDS011;21924;51.934;7.414;2023-07-02T16:13:18;8.13;;;3.22;;
35803;SDS011;21924;51.934;7.414;2023-07-02T16:16:03;9.80;;;2.88;;
35803;SDS011;21924;51.934;7.414;2023-07-02T16:18:48;7.40;;;2.80;;
35803;SDS011;21924;51.934;7.414;2023-07-02T16:21:33;8.25;;;3.60;;
35803;SDS011;21924;51.934;7.414;2023-07-02T16:24:21;8.33;;;3.10;;
35803;SDS011;21924;51.934;7.414;2023-07-02T16:27:08;8.60;;;2.60;;
35803;SDS011;21924;51.934;7.414;2023-07-02T16:29:54;7.20;;;2.70;;
35803;SDS011;21924;51.934;7.414;2023-07-02T16:32:39;8.55;;;2.83;;
35803;SDS011;21924;51.934;7.414;2023-07-02T16:35:24;9.32;;;2.83;;
35803;SDS011;21924;51.934;7.414;2023-07-02T16:38:08;11.20;;;3.33;;
35803;SDS011;21924;51.934;7.414;2023-07-02T16:40:52;9.63;;;3.03;;
35803;SDS011;21924;51.934;7.414;2023-07-02T16:43:37;10.13;;;3.28;;
35803;SDS011;21924;51.934;7.414;2023-07-02T16:46:21;7.43;;;2.92;;
35803;SDS011;21924;51.934;7.414;2023-07-02T16:49:06;6.82;;;3.05;;
35803;SDS011;21924;51.934;7.414;2023-07-02T16:51:52;10.43;;;3.22;;
35803;SDS011;21924;51.934;7.414;2023-07-02T16:54:37;7.88;;;3.00;;
35803;SDS011;21924;51.934;7.414;2023-07-02T16:57:21;9.43;;;3.00;;
35803;SDS011;21924;51.934;7.414;2023-07-02T17:00:06;8.87;;;3.30;;
35803;SDS011;21924;51.934;7.414;2023-07-02T17:02:51;9.55;;;3.00;;
35803;SDS011;21924;51.934;7.414;2023-07-02T17:05:35;9.55;;;3.15;;
35803;SDS011;21924;51.934;7.414;2023-07-02T17:08:19;10.03;;;3.27;;
35803;SDS011;21924;51.934;7.414;2023-07-02T17:11:04;7.63;;;3.05;;
35803;SDS011;21924;51.934;7.414;2023-07-02T17:13:50;10.85;;;2.70;;
35803;SDS011;21924;51.934;7.414;2023-07-02T17:16:34;9.43;;;2.83;;
35803;SDS011;21924;51.934;7.414;2023-07-02T17:19:19;9.07;;;3.10;;
35803;SDS011;21924;51.934;7.414;2023-07-02T17:22:08;11.15;;;3.25;;
35803;SDS011;21924;51.934;7.414;2023-07-02T17:24:54;9.02;;;3.30;;
35803;SDS011;21924;51.934;7.414;2023-07-02T17:27:42;6.53;;;2.65;;
35803;SDS011;21924;51.934;7.414;2023-07-02T17:30:26;11.83;;;3.10;;
35803;SDS011;21924;51.934;7.414;2023-07-02T17:33:10;9.52;;;3.20;;
35803;SDS011;21924;51.934;7.414;2023-07-02T17:35:55;8.23;;;3.42;;
35803;SDS011;21924;51.934;7.414;2023-07-02T17:38:39;8.30;;;2.85;;
35803;SDS011;21924;51.934;7.414;2023-07-02T17:41:23;11.60;;;2.88;;
35803;SDS011;21924;51.934;7.414;2023-07-02T17:44:07;8.70;;;2.70;;
35803;SDS011;21924;51.934;7.414;2023-07-02T17:46:53;12.18;;;3.33;;
35803;SDS011;21924;51.934;7.414;2023-07-02T17:49:40;9.63;;;3.08;;
35803;SDS011;21924;51.934;7.414;2023-07-02T17:52:26;9.70;;;3.33;;
35803;SDS011;21924;51.934;7.414;2023-07-02T17:55:10;8.57;;;3.10;;
35803;SDS011;21924;51.934;7.414;2023-07-02T17:57:54;8.57;;;2.90;;
35803;SDS011;21924;51.934;7.414;2023-07-02T18:00:40;10.00;;;3.25;;
35803;SDS011;21924;51.934;7.414;2023-07-02T18:03:24;9.33;;;3.27;;
35803;SDS011;21924;51.934;7.414;2023-07-02T18:06:09;10.60;;;3.63;;
35803;SDS011;21924;51.934;7.414;2023-07-02T18:08:53;9.80;;;3.30;;
35803;SDS011;21924;51.934;7.414;2023-07-02T18:11:37;9.05;;;3.40;;
35803;SDS011;21924;51.934;7.414;2023-07-02T18:14:22;10.40;;;3.47;;
35803;SDS011;21924;51.934;7.414;2023-07-02T18:17:09;11.27;;;3.75;;